sensor_id;sensor_type;location;lat;lon;timestamp;P1;durP1;ratioP1;P2;durP2;ratioP2
3401;SDS011;1714;49.756;8.610;2022-08-01T00:03:20;1.70;;;1.48;;
3401;SDS011;1714;49.756;8.610;2022-08-01T00:13:21;1.92;;;1.35;;
3401;SDS011;1714;49.756;8.610;2022-08-01T00:23:23;2.95;;;1.50;;
3401;SDS011;1714;49.756;8.610;2022-08-01T00:33:25;2.05;;;1.63;;
3401;SDS011;1714;49.756;8.610;2022-08-01T00:43:27;3.40;;;1.50;;
3401;SDS011;1714;49.756;8.610;2022-08-01T00:53:29;2.15;;;1.60;;
3401;SDS011;1714;49.756;8.610;2022-08-01T01:03:50;1.58;;;1.48;;
3401;SDS011;1714;49.756;8.610;2022-08-01T01:14:02;3.45;;;1.30;;
3401;SDS011;1714;49.756;8.610;2022-08-01T01:34:34;4.40;;;1.10;;
3401;SDS011;1714;49.756;8.610;2022-08-01T01:44:40;2.60;;;0.75;;
3401;SDS011;1714;49.756;8.610;2022-08-01T01:54:47;1.17;;;0.73;;
3401;SDS011;1714;49.756;8.610;2022-08-01T02:04:50;2.73;;;1.00;;
3401;SDS011;1714;49.756;8.610;2022-08-01T02:14:53;3.72;;;1.10;;
3401;SDS011;1714;49.756;8.610;2022-08-01T02:25:42;5.93;;;1.38;;
3401;SDS011;1714;49.756;8.610;2022-08-01T02:35:31;5.38;;;2.20;;
3401;SDS011;1714;49.756;8.610;2022-08-01T02:45:56;3.58;;;1.13;;
3401;SDS011;1714;49.756;8.610;2022-08-01T02:56:03;3.75;;;1.23;;
3401;SDS011;1714;49.756;8.610;2022-08-01T03:06:08;2.42;;;1.00;;
3401;SDS011;1714;49.756;8.610;2022-08-01T03:16:13;1.88;;;1.15;;
3401;SDS011;1714;49.756;8.610;2022-08-01T03:26:17;1.65;;;1.10;;
3401;SDS011;1714;49.756;8.610;2022-08-01T03:36:21;1.63;;;1.20;;
3401;SDS011;1714;49.756;8.610;2022-08-01T03:46:56;4.75;;;1.30;;
3401;SDS011;1714;49.756;8.610;2022-08-01T03:57:02;1.15;;;0.93;;
3401;SDS011;1714;49.756;8.610;2022-08-01T04:07:30;2.33;;;0.90;;
3401;SDS011;1714;49.756;8.610;2022-08-01T04:17:35;1.55;;;0.95;;
3401;SDS011;1714;49.756;8.610;2022-08-01T04:27:38;5.45;;;1.00;;
3401;SDS011;1714;49.756;8.610;2022-08-01T04:37:49;1.90;;;0.80;;
3401;SDS011;1714;49.756;8.610;2022-08-01T04:47:52;3.03;;;1.00;;
3401;SDS011;1714;49.756;8.610;2022-08-01T04:57:54;1.08;;;0.98;;
3401;SDS011;1714;49.756;8.610;2022-08-01T05:07:57;2.50;;;0.95;;
3401;SDS011;1714;49.756;8.610;2022-08-01T05:18:00;1.70;;;0.98;;
3401;SDS011;1714;49.756;8.610;2022-08-01T05:28:05;6.05;;;1.13;;
3401;SDS011;1714;49.756;8.610;2022-08-01T05:38:06;2.08;;;0.98;;
3401;SDS011;1714;49.756;8.610;2022-08-01T05:48:12;1.05;;;0.88;;
3401;SDS011;1714;49.756;8.610;2022-08-01T05:58:14;1.33;;;0.90;;
3401;SDS011;1714;49.756;8.610;2022-08-01T06:08:15;2.22;;;0.90;;
3401;SDS011;1714;49.756;8.610;2022-08-01T06:18:19;3.38;;;1.17;;
3401;SDS011;1714;49.756;8.610;2022-08-01T06:28:21;3.75;;;1.00;;
3401;SDS011;1714;49.756;8.610;2022-08-01T06:38:23;2.90;;;1.00;;
3401;SDS011;1714;49.756;8.610;2022-08-01T06:48:25;1.55;;;0.90;;
3401;SDS011;1714;49.756;8.610;2022-08-01T06:58:27;2.47;;;0.90;;
3401;SDS011;1714;49.756;8.610;2022-08-01T07:08:29;1.23;;;0.90;;
3401;SDS011;1714;49.756;8.610;2022-08-01T07:18:32;4.57;;;1.13;;
3401;SDS011;1714;49.756;8.610;2022-08-01T07:28:33;1.23;;;1.10;;
3401;SDS011;1714;49.756;8.610;2022-08-01T07:38:43;3.10;;;1.38;;
3401;SDS011;1714;49.756;8.610;2022-08-01T07:48:45;4.10;;;1.90;;
3401;SDS011;1714;49.756;8.610;2022-08-01T07:58:47;3.85;;;1.20;;
3401;SDS011;1714;49.756;8.610;2022-08-01T08:08:48;1.73;;;1.08;;
3401;SDS011;1714;49.756;8.610;2022-08-01T08:18:50;1.40;;;1.00;;
3401;SDS011;1714;49.756;8.610;2022-08-01T08:28:55;1.20;;;1.10;;
3401;SDS011;1714;49.756;8.610;2022-08-01T08:38:57;1.50;;;1.25;;
3401;SDS011;1714;49.756;8.610;2022-08-01T08:49:02;1.67;;;1.30;;
3401;SDS011;1714;49.756;8.610;2022-08-01T08:59:04;2.78;;;1.48;;
3401;SDS011;1714;49.756;8.610;2022-08-01T09:09:07;1.52;;;0.90;;
3401;SDS011;1714;49.756;8.610;2022-08-01T09:19:14;1.30;;;1.17;;
3401;SDS011;1714;49.756;8.610;2022-08-01T09:29:39;1.52;;;1.10;;
3401;SDS011;1714;49.756;8.610;2022-08-01T09:39:41;1.00;;;0.90;;
3401;SDS011;1714;49.756;8.610;2022-08-01T09:49:45;0.90;;;0.90;;
3401;SDS011;1714;49.756;8.610;2022-08-01T10:11:26;1.63;;;1.10;;
3401;SDS011;1714;49.756;8.610;2022-08-01T10:21:33;2.35;;;0.95;;
3401;SDS011;1714;49.756;8.610;2022-08-01T10:31:56;1.40;;;1.02;;
3401;SDS011;1714;49.756;8.610;2022-08-01T10:42:04;1.35;;;0.90;;
3401;SDS011;1714;49.756;8.610;2022-08-01T10:52:20;1.02;;;0.90;;
3401;SDS011;1714;49.756;8.610;2022-08-01T11:02:29;2.67;;;1.10;;
3401;SDS011;1714;49.756;8.610;2022-08-01T11:12:40;1.10;;;0.85;;
3401;SDS011;1714;49.756;8.610;2022-08-01T11:33:06;1.05;;;0.90;;
3401;SDS011;1714;49.756;8.610;2022-08-01T11:43:18;0.90;;;0.90;;
3401;SDS011;1714;49.756;8.610;2022-08-01T11:53:20;3.63;;;1.00;;
3401;SDS011;1714;49.756;8.610;2022-08-01T12:03:28;1.08;;;0.90;;
3401;SDS011;1714;49.756;8.610;2022-08-01T12:13:41;1.48;;;0.85;;
3401;SDS011;1714;49.756;8.610;2022-08-01T12:23:44;2.03;;;0.95;;
3401;SDS011;1714;49.756;8.610;2022-08-01T12:33:48;1.33;;;0.80;;
3401;SDS011;1714;49.756;8.610;2022-08-01T12:43:50;2.80;;;0.80;;
3401;SDS011;1714;49.756;8.610;2022-08-01T12:53:53;3.08;;;0.85;;
3401;SDS011;1714;49.756;8.610;2022-08-01T13:04:00;1.17;;;0.98;;
3401;SDS011;1714;49.756;8.610;2022-08-01T13:14:05;2.65;;;0.85;;
3401;SDS011;1714;49.756;8.610;2022-08-01T13:24:11;0.80;;;0.80;;
3401;SDS011;1714;49.756;8.610;2022-08-01T13:34:14;1.10;;;1.00;;
3401;SDS011;1714;49.756;8.610;2022-08-01T13:44:16;0.90;;;0.60;;
3401;SDS011;1714;49.756;8.610;2022-08-01T13:54:18;1.45;;;1.10;;
3401;SDS011;1714;49.756;8.610;2022-08-01T14:04:20;2.17;;;0.82;;
3401;SDS011;1714;49.756;8.610;2022-08-01T14:14:22;5.03;;;0.70;;
3401;SDS011;1714;49.756;8.610;2022-08-01T14:24:24;2.35;;;0.70;;
3401;SDS011;1714;49.756;8.610;2022-08-01T14:34:26;1.02;;;0.80;;
3401;SDS011;1714;49.756;8.610;2022-08-01T14:44:28;1.25;;;0.88;;
3401;SDS011;1714;49.756;8.610;2022-08-01T14:54:33;2.25;;;0.77;;
3401;SDS011;1714;49.756;8.610;2022-08-01T15:04:35;1.20;;;0.80;;
3401;SDS011;1714;49.756;8.610;2022-08-01T15:14:37;4.57;;;1.15;;
3401;SDS011;1714;49.756;8.610;2022-08-01T15:24:49;4.68;;;0.90;;
3401;SDS011;1714;49.756;8.610;2022-08-01T15:34:55;1.00;;;0.60;;
3401;SDS011;1714;49.756;8.610;2022-08-01T15:44:57;1.67;;;0.65;;
3401;SDS011;1714;49.756;8.610;2022-08-01T15:55:01;4.18;;;0.57;;
3401;SDS011;1714;49.756;8.610;2022-08-01T16:05:02;1.80;;;1.15;;
3401;SDS011;1714;49.756;8.610;2022-08-01T16:15:06;2.70;;;1.05;;
3401;SDS011;1714;49.756;8.610;2022-08-01T16:25:08;2.80;;;0.80;;
3401;SDS011;1714;49.756;8.610;2022-08-01T16:35:12;1.30;;;0.98;;
3401;SDS011;1714;49.756;8.610;2022-08-01T16:45:15;3.22;;;1.00;;
3401;SDS011;1714;49.756;8.610;2022-08-01T16:55:21;3.57;;;1.00;;
3401;SDS011;1714;49.756;8.610;2022-08-01T17:05:23;4.03;;;1.90;;
3401;SDS011;1714;49.756;8.610;2022-08-01T17:15:25;0.68;;;0.55;;
3401;SDS011;1714;49.756;8.610;2022-08-01T17:25:33;2.08;;;0.90;;
3401;SDS011;1714;49.756;8.610;2022-08-01T17:35:36;1.77;;;1.50;;
3401;SDS011;1714;49.756;8.610;2022-08-01T17:45:39;1.23;;;0.80;;
3401;SDS011;1714;49.756;8.610;2022-08-01T17:55:50;1.27;;;1.10;;
3401;SDS011;1714;49.756;8.610;2022-08-01T18:05:57;2.15;;;1.10;;
3401;SDS011;1714;49.756;8.610;2022-08-01T18:16:05;3.38;;;1.10;;
3401;SDS011;1714;49.756;8.610;2022-08-01T18:26:13;4.82;;;1.55;;
3401;SDS011;1714;49.756;8.610;2022-08-01T18:36:16;8.80;;;1.40;;
3401;SDS011;1714;49.756;8.610;2022-08-01T18:46:31;3.47;;;1.52;;
3401;SDS011;1714;49.756;8.610;2022-08-01T18:56:34;3.17;;;1.67;;
3401;SDS011;1714;49.756;8.610;2022-08-01T19:06:40;4.22;;;1.60;;
3401;SDS011;1714;49.756;8.610;2022-08-01T19:16:46;3.42;;;1.75;;
3401;SDS011;1714;49.756;8.610;2022-08-01T19:26:51;3.17;;;1.77;;
3401;SDS011;1714;49.756;8.610;2022-08-01T19:37:06;1.83;;;1.48;;
3401;SDS011;1714;49.756;8.610;2022-08-01T19:47:08;1.95;;;1.45;;
3401;SDS011;1714;49.756;8.610;2022-08-01T19:57:13;4.50;;;1.80;;
3401;SDS011;1714;49.756;8.610;2022-08-01T20:07:16;6.30;;;2.25;;
3401;SDS011;1714;49.756;8.610;2022-08-01T20:17:19;3.53;;;1.67;;
3401;SDS011;1714;49.756;8.610;2022-08-01T20:27:23;2.20;;;2.00;;
3401;SDS011;1714;49.756;8.610;2022-08-01T20:37:30;5.78;;;2.15;;
3401;SDS011;1714;49.756;8.610;2022-08-01T20:47:59;6.35;;;2.50;;
3401;SDS011;1714;49.756;8.610;2022-08-01T20:58:01;2.72;;;2.20;;
3401;SDS011;1714;49.756;8.610;2022-08-01T21:08:27;5.00;;;2.80;;
3401;SDS011;1714;49.756;8.610;2022-08-01T21:29:17;2.67;;;2.20;;
3401;SDS011;1714;49.756;8.610;2022-08-01T21:39:21;2.90;;;2.40;;
3401;SDS011;1714;49.756;8.610;2022-08-01T21:49:24;3.63;;;2.65;;
3401;SDS011;1714;49.756;8.610;2022-08-01T21:59:30;3.28;;;2.92;;
3401;SDS011;1714;49.756;8.610;2022-08-01T22:10:06;6.70;;;3.43;;
3401;SDS011;1714;49.756;8.610;2022-08-01T22:20:09;3.13;;;2.83;;
3401;SDS011;1714;49.756;8.610;2022-08-01T22:30:12;4.85;;;3.60;;
3401;SDS011;1714;49.756;8.610;2022-08-01T22:40:16;2.75;;;2.55;;
3401;SDS011;1714;49.756;8.610;2022-08-01T22:50:28;4.35;;;2.65;;
3401;SDS011;1714;49.756;8.610;2022-08-01T23:00:35;3.22;;;2.92;;
3401;SDS011;1714;49.756;8.610;2022-08-01T23:10:38;3.20;;;2.90;;
3401;SDS011;1714;49.756;8.610;2022-08-01T23:20:42;4.60;;;3.45;;
3401;SDS011;1714;49.756;8.610;2022-08-01T23:30:48;3.75;;;3.03;;
3401;SDS011;1714;49.756;8.610;2022-08-01T23:40:56;4.47;;;3.13;;
3401;SDS011;1714;49.756;8.610;2022-08-01T23:50:59;3.45;;;2.70;;
